createdAt,value
2023-05-01T04:20:24.862Z,61.59
2023-05-01T04:22:55.768Z,61.32
2023-05-01T04:25:26.756Z,60.97
2023-05-01T04:27:59.368Z,61.02
2023-05-01T04:30:29.314Z,60.93
2023-05-01T04:32:59.493Z,60.63
2023-05-01T04:35:29.575Z,60.94
2023-05-01T04:37:59.581Z,60.62
2023-05-01T04:40:29.528Z,60.66
2023-05-01T04:42:59.635Z,60.31
2023-05-01T04:45:29.991Z,60.33
2023-05-01T04:48:00.428Z,60.07
2023-05-01T04:50:30.570Z,60.00
2023-05-01T04:53:00.667Z,60.07
2023-05-01T04:55:31.319Z,59.89
2023-05-01T04:58:07.289Z,59.57
2023-05-01T05:00:38.245Z,59.40
2023-05-01T05:03:09.858Z,59.22
2023-05-01T05:05:40.067Z,59.20
2023-05-01T05:08:10.361Z,59.08
2023-05-01T05:10:42.779Z,58.84
2023-05-01T05:13:44.844Z,58.87
2023-05-01T05:16:15.450Z,58.55
2023-05-01T05:18:45.600Z,58.87
2023-05-01T05:21:16.069Z,58.76
2023-05-01T05:23:52.227Z,58.78
2023-05-01T05:26:22.400Z,58.39
2023-05-01T05:28:53.554Z,58.20
2023-05-01T05:31:24.139Z,57.69
2023-05-01T05:33:54.400Z,57.06
2023-05-01T05:36:25.018Z,57.40
2023-05-01T05:38:55.814Z,57.65
2023-05-01T05:41:27.069Z,57.17
2023-05-01T05:44:00.593Z,56.95
2023-05-01T05:46:31.490Z,56.56
2023-05-01T05:49:02.102Z,56.23
2023-05-01T05:51:33.107Z,56.33
2023-05-01T05:54:03.588Z,55.96
2023-05-01T05:56:34.114Z,55.37
2023-05-01T05:59:06.474Z,54.84
2023-05-01T06:01:37.854Z,54.36
2023-05-01T06:04:07.975Z,54.19
2023-05-01T06:06:39.673Z,54.07
2023-05-01T06:09:10.420Z,53.41
2023-05-01T06:11:40.484Z,53.43
2023-05-01T06:14:10.786Z,52.55
2023-05-01T06:16:41.388Z,52.48
2023-05-01T06:19:12.240Z,52.60
2023-05-01T06:21:42.341Z,51.97
2023-05-01T06:24:13.433Z,51.16
2023-05-01T06:26:49.474Z,51.16
2023-05-01T06:29:19.516Z,50.91
2023-05-01T06:31:49.426Z,50.49
2023-05-01T06:34:19.362Z,50.21
2023-05-01T06:36:53.164Z,50.34
2023-05-01T07:58:44.559Z,41.90
2023-05-01T08:01:14.973Z,42.36
2023-05-01T08:03:45.180Z,41.49
2023-05-01T08:06:16.074Z,41.14
2023-05-01T08:08:46.062Z,41.84
2023-05-01T08:11:16.542Z,42.63
2023-05-01T08:13:46.728Z,42.33
2023-05-01T08:16:17.300Z,42.71
2023-05-01T08:18:48.841Z,42.37
2023-05-01T08:21:18.888Z,42.14
2023-05-01T08:23:51.130Z,41.51
2023-05-01T08:26:22.469Z,41.12
2023-05-01T08:28:52.556Z,40.23
2023-05-01T08:31:25.078Z,40.48
2023-05-01T08:33:55.475Z,39.97
2023-05-01T08:36:25.543Z,40.36
2023-05-01T08:38:55.398Z,40.65
2023-05-01T08:41:26.118Z,40.56
2023-05-01T08:44:01.740Z,41.04
2023-05-01T08:46:38.580Z,40.57
2023-05-01T08:49:09.313Z,40.09
2023-05-01T08:51:39.346Z,40.31
2023-05-01T08:54:09.295Z,39.95
2023-05-01T08:56:39.311Z,39.36
2023-05-01T08:59:10.099Z,40.33
2023-05-01T09:01:40.006Z,40.53
2023-05-01T09:04:10.369Z,39.81
2023-05-01T09:06:41.392Z,40.82
2023-05-01T09:09:11.991Z,40.02
2023-05-01T09:11:46.230Z,40.21
2023-05-01T09:14:17.235Z,40.29
2023-05-01T09:16:47.297Z,40.05
2023-05-01T09:19:17.585Z,40.47
2023-05-01T09:21:47.615Z,41.29
2023-05-01T09:24:18.219Z,40.71
2023-05-01T09:26:48.848Z,39.79
2023-05-01T09:29:39.320Z,38.66
2023-05-01T09:32:16.468Z,38.46
2023-05-01T09:34:46.931Z,38.65
2023-05-01T09:37:29.685Z,38.72
2023-05-01T09:40:07.552Z,38.50
2023-05-01T09:42:38.593Z,37.92
2023-05-01T09:45:14.935Z,38.29
2023-05-01T09:47:45.625Z,38.07
2023-05-01T09:50:30.804Z,37.75
2023-05-01T09:53:00.937Z,38.24
2023-05-01T09:55:31.159Z,38.74
2023-05-01T09:58:01.438Z,38.59
2023-05-01T10:00:31.972Z,38.02
2023-05-01T10:03:02.740Z,37.66
2023-05-01T10:05:44.457Z,36.67
2023-05-01T10:08:15.201Z,37.19
2023-05-01T10:10:47.176Z,37.21
2023-05-01T10:13:17.792Z,37.74
2023-05-01T10:15:47.701Z,37.55
2023-05-01T10:18:17.683Z,36.47
2023-05-01T10:20:47.832Z,37.15
2023-05-01T10:23:17.931Z,37.27
2023-05-01T10:25:48.625Z,37.61
2023-05-01T10:28:18.623Z,37.30
2023-05-01T10:30:49.002Z,37.18
2023-05-01T10:33:19.188Z,38.04
2023-05-01T10:35:50.966Z,37.98
2023-05-01T10:38:24.208Z,37.46
2023-05-01T10:40:54.139Z,36.73
2023-05-01T10:43:26.326Z,37.08
2023-05-01T10:46:16.946Z,37.11
2023-05-01T10:48:59.454Z,36.50
2023-05-01T10:51:29.645Z,36.00
2023-05-01T10:54:23.612Z,36.40
2023-05-01T10:56:54.526Z,36.32
2023-05-01T10:59:25.068Z,36.65
2023-05-01T11:01:55.290Z,36.37
2023-05-01T11:04:51.275Z,36.16
2023-05-01T11:07:22.804Z,37.61
2023-05-01T11:10:02.501Z,37.49
2023-05-01T11:12:52.524Z,36.21
2023-05-01T11:15:30.476Z,36.27
2023-05-01T11:18:03.929Z,35.61
2023-05-01T11:20:53.204Z,35.60
2023-05-01T11:23:23.838Z,35.44
2023-05-01T11:26:04.933Z,35.28
2023-05-01T11:28:35.103Z,35.80
2023-05-01T11:31:05.234Z,36.12
2023-05-01T11:33:36.916Z,36.08
2023-05-01T11:36:07.720Z,35.37
2023-05-01T11:38:39.889Z,35.39
2023-05-01T11:41:09.749Z,35.26
2023-05-01T11:43:54.086Z,36.08
2023-05-01T11:46:27.764Z,35.00
2023-05-01T11:48:58.679Z,35.21
2023-05-01T11:51:28.678Z,34.81
2023-05-01T11:54:02.901Z,35.03
2023-05-01T11:56:33.486Z,34.89
2023-05-01T11:59:12.225Z,34.27
2023-05-01T12:01:44.605Z,34.47
2023-05-01T12:04:23.270Z,35.22
2023-05-01T12:06:53.374Z,34.66
2023-05-01T12:09:24.279Z,35.21
2023-05-01T12:11:54.417Z,33.88
2023-05-01T12:14:24.758Z,34.61
2023-05-01T12:16:55.702Z,34.59
2023-05-01T12:19:26.087Z,34.57
2023-05-01T12:22:07.792Z,34.31
2023-05-01T12:24:38.021Z,34.10
2023-05-01T12:27:09.252Z,34.32
2023-05-01T12:29:42.870Z,34.12
2023-05-01T12:32:12.991Z,34.66
2023-05-01T12:34:43.417Z,34.99
2023-05-01T12:37:13.563Z,35.74
2023-05-01T12:39:45.070Z,34.49
2023-05-01T12:42:15.412Z,34.12
2023-05-01T12:44:46.053Z,33.19
2023-05-01T12:47:16.109Z,33.56
2023-05-01T12:49:46.084Z,33.99
2023-05-01T12:52:16.128Z,33.38
2023-05-01T12:54:46.392Z,33.00
2023-05-01T12:57:16.714Z,33.75
2023-05-01T12:59:49.497Z,33.90
2023-05-01T13:02:19.998Z,33.76
2023-05-01T13:04:51.291Z,34.89
2023-05-01T13:07:21.339Z,34.33
2023-05-01T13:09:54.463Z,34.10
2023-05-01T13:12:24.902Z,34.43
2023-05-01T13:14:55.059Z,33.58
2023-05-01T13:17:26.133Z,34.46
2023-05-01T13:19:57.205Z,35.45
2023-05-01T13:22:34.245Z,33.83
2023-05-01T13:25:04.908Z,33.53
2023-05-01T13:27:35.171Z,34.14
2023-05-01T13:30:06.261Z,33.87
2023-05-01T13:32:36.647Z,33.26
2023-05-01T13:35:07.940Z,33.22
2023-05-01T13:37:38.486Z,34.06
2023-05-01T13:40:10.589Z,33.92
2023-05-01T13:42:41.177Z,34.17
2023-05-01T13:45:25.511Z,34.17
2023-05-01T13:48:03.078Z,34.66
2023-05-01T13:50:55.881Z,32.49
2023-05-01T13:53:25.762Z,33.08
2023-05-01T13:55:55.789Z,33.30
2023-05-01T13:58:26.110Z,33.76
2023-05-01T14:00:56.067Z,34.44
2023-05-01T14:03:26.238Z,33.54
2023-05-01T14:05:56.390Z,32.41
2023-05-01T14:08:27.094Z,33.47
2023-05-01T14:10:57.585Z,33.74
2023-05-01T14:13:28.379Z,33.18
2023-05-01T14:15:58.789Z,32.67
2023-05-01T14:18:29.978Z,32.86
2023-05-01T14:21:00.522Z,33.35
2023-05-01T14:23:31.197Z,34.64
2023-05-01T14:26:04.988Z,33.34
2023-05-01T14:28:35.099Z,33.53
2023-05-01T14:31:05.211Z,33.09
2023-05-01T14:33:40.457Z,32.61
2023-05-01T14:36:10.466Z,32.57
2023-05-01T14:51:58.770Z,32.21
2023-05-01T14:54:29.053Z,32.24
2023-05-01T14:57:01.676Z,31.84
2023-05-01T14:59:32.189Z,31.99
2023-05-01T15:02:02.516Z,32.12
2023-05-01T15:04:32.780Z,30.76
2023-05-01T15:07:03.277Z,28.16
2023-05-01T15:09:33.740Z,27.78
2023-05-01T15:12:06.756Z,26.00
2023-05-01T15:14:37.336Z,24.16
2023-05-01T15:17:07.553Z,23.74
2023-05-01T15:19:37.782Z,22.60
2023-05-01T15:22:07.711Z,22.52
2023-05-01T15:24:39.137Z,22.40
2023-05-01T15:27:09.332Z,22.79
2023-05-01T15:29:39.703Z,22.87
2023-05-01T15:32:12.780Z,21.66
2023-05-01T15:34:46.287Z,22.14
2023-05-01T15:37:17.103Z,22.67
2023-05-01T15:39:47.240Z,21.77
2023-05-01T15:42:17.342Z,22.80
2023-05-01T15:44:47.466Z,23.40
2023-05-01T15:47:17.697Z,23.41
2023-05-01T15:49:48.668Z,23.46
2023-05-01T15:52:19.036Z,23.73
2023-05-01T15:54:49.341Z,24.29
2023-05-01T15:57:19.842Z,24.67
2023-05-01T15:59:53.933Z,24.82
2023-05-01T16:02:25.299Z,24.75
2023-05-01T16:04:55.458Z,24.74
2023-05-01T16:07:27.452Z,24.55
2023-05-01T16:09:58.678Z,24.71
2023-05-01T16:12:30.110Z,25.06
2023-05-01T16:15:03.774Z,25.05
2023-05-01T16:17:34.396Z,25.54
2023-05-01T16:20:05.772Z,25.70
2023-05-01T16:22:36.384Z,26.10
2023-05-01T16:25:07.744Z,26.31
2023-05-01T16:27:41.167Z,26.52
2023-05-01T16:30:14.574Z,26.58
2023-05-01T16:32:45.887Z,26.77
2023-05-01T16:35:17.934Z,27.32
2023-05-01T16:37:47.953Z,27.50
2023-05-01T16:40:18.742Z,27.86
2023-05-01T16:42:52.577Z,28.05
2023-05-01T16:45:22.501Z,28.51
2023-05-01T16:47:52.515Z,28.75
2023-05-01T16:50:22.951Z,28.91
2023-05-01T16:52:55.126Z,29.06
2023-05-01T16:55:25.901Z,29.56
2023-05-01T16:57:56.158Z,29.52
2023-05-01T17:00:29.320Z,30.05
2023-05-01T17:02:59.431Z,30.16
2023-05-01T17:05:29.707Z,30.66
2023-05-01T17:07:59.871Z,30.94
2023-05-01T17:10:30.293Z,31.54
2023-05-01T17:13:00.697Z,32.03
2023-05-01T17:15:31.002Z,31.99
2023-05-01T17:18:00.944Z,31.38
2023-05-01T17:20:31.306Z,31.34
2023-05-01T17:23:01.678Z,31.53
2023-05-01T17:25:32.055Z,32.24
2023-05-01T17:28:02.464Z,32.80
2023-05-01T17:30:33.068Z,33.00
2023-05-01T17:47:46.601Z,33.34
2023-05-01T17:53:39.515Z,34.59
2023-05-01T17:56:09.614Z,35.18
2023-05-01T17:58:40.942Z,35.52
2023-05-01T18:01:11.117Z,35.24
2023-05-01T18:03:41.374Z,34.76
2023-05-01T18:06:11.510Z,35.33
2023-05-01T18:08:41.596Z,35.84
2023-05-01T18:11:11.577Z,36.66
2023-05-01T18:13:43.879Z,36.61
2023-05-01T18:16:13.812Z,37.03
2023-05-01T18:18:43.833Z,37.61
2023-05-01T18:21:14.656Z,37.92
2023-05-01T18:23:46.342Z,38.33
2023-05-01T18:26:16.696Z,37.37
2023-05-01T18:28:47.299Z,37.21
2023-05-01T18:31:17.287Z,37.40
2023-05-01T18:33:47.439Z,37.58
2023-05-01T18:36:17.492Z,38.84
2023-05-01T18:38:47.386Z,39.37
2023-05-01T18:41:19.487Z,39.33
2023-05-01T18:43:54.277Z,38.44
2023-05-01T18:46:25.643Z,38.30
2023-05-01T18:48:55.745Z,38.59
2023-05-01T18:51:28.232Z,38.72
2023-05-01T18:53:58.988Z,38.81
2023-05-01T18:56:28.891Z,38.91
2023-05-01T18:58:58.785Z,39.23
2023-05-01T19:01:28.776Z,39.65
2023-05-01T19:04:00.053Z,40.70
2023-05-01T19:06:31.364Z,41.41
2023-05-01T19:09:01.403Z,40.90
2023-05-01T19:11:32.310Z,40.88
2023-05-01T19:14:02.617Z,41.03
2023-05-01T19:16:32.984Z,41.13
2023-05-01T19:19:03.433Z,41.09
2023-05-01T19:21:34.169Z,41.60
2023-05-01T19:24:04.604Z,41.78
2023-05-01T19:26:35.373Z,42.61
2023-05-01T19:29:05.641Z,43.17
2023-05-01T19:31:37.078Z,42.15
2023-05-01T19:34:07.430Z,41.88
2023-05-01T19:36:37.800Z,42.08
2023-05-01T19:39:07.962Z,42.47
2023-05-01T19:41:38.133Z,43.29
2023-05-01T19:44:08.385Z,43.72
2023-05-01T19:46:39.025Z,43.96
2023-05-01T19:49:08.907Z,43.36
2023-05-01T19:51:39.074Z,43.27
2023-05-01T19:54:09.203Z,43.17
2023-05-01T19:56:39.470Z,44.30
2023-05-01T19:59:09.524Z,44.62
2023-05-01T20:01:40.291Z,44.74
2023-05-01T20:04:10.322Z,45.00
2023-05-01T20:06:40.467Z,44.93
2023-05-01T20:09:10.410Z,44.90
2023-05-01T20:11:40.379Z,44.90
2023-05-01T20:14:10.411Z,45.31
2023-05-01T20:16:40.716Z,45.15
2023-05-01T20:19:10.818Z,44.70
2023-05-01T20:21:40.789Z,45.03
2023-05-01T20:24:11.355Z,44.99
2023-05-01T20:26:41.555Z,45.72
2023-05-01T20:29:11.861Z,46.08
2023-05-01T20:31:42.347Z,45.48
2023-05-01T20:34:12.655Z,44.96
2023-05-01T20:36:43.192Z,44.75
2023-05-01T20:39:13.802Z,44.76
2023-05-01T20:41:43.796Z,45.26
2023-05-01T20:44:14.186Z,45.89
2023-05-01T20:46:58.015Z,46.51
2023-05-01T20:49:31.602Z,45.88
2023-05-01T20:52:03.933Z,45.70
2023-05-01T20:54:43.072Z,45.65
2023-05-01T20:57:18.152Z,45.65
2023-05-01T20:59:51.378Z,46.39
2023-05-01T21:02:21.697Z,46.94
2023-05-01T21:04:52.658Z,47.32
2023-05-01T21:07:22.886Z,46.72
2023-05-01T21:09:53.168Z,46.82
2023-05-01T21:12:23.172Z,46.65
2023-05-01T21:14:53.509Z,47.39
2023-05-01T21:17:23.474Z,47.70
2023-05-01T21:19:53.429Z,47.88
2023-05-01T21:22:26.466Z,48.06
2023-05-01T21:24:59.260Z,47.51
2023-05-01T21:27:29.177Z,47.43
2023-05-01T21:30:00.513Z,47.39
2023-05-01T21:32:32.488Z,47.98
2023-05-01T21:35:02.806Z,48.24
2023-05-01T21:37:35.692Z,48.90
2023-05-01T21:40:07.255Z,48.34
2023-05-01T21:42:38.370Z,48.23
2023-05-01T21:45:10.061Z,48.30
2023-05-01T21:47:40.625Z,48.42
2023-05-01T21:50:12.916Z,48.86
2023-05-01T21:52:43.740Z,49.01
2023-05-01T21:55:17.410Z,49.48
2023-05-01T21:57:47.711Z,49.71
2023-05-01T22:00:19.196Z,49.86
2023-05-01T22:02:50.367Z,49.25
2023-05-01T22:05:22.484Z,49.24
2023-05-01T22:07:54.513Z,49.28
2023-05-01T22:10:24.379Z,49.51
2023-05-01T22:12:54.368Z,49.76
2023-05-01T22:15:24.721Z,50.07
2023-05-01T22:17:56.607Z,49.59
2023-05-01T22:20:26.745Z,50.66
2023-05-01T22:22:57.031Z,50.05
2023-05-01T22:25:26.957Z,50.28
2023-05-01T22:27:57.870Z,50.04
2023-05-01T22:30:28.184Z,50.61
2023-05-01T22:32:58.328Z,50.80
2023-05-01T22:35:28.203Z,51.70
2023-05-01T22:37:58.468Z,51.76
2023-05-01T22:40:29.104Z,51.29
2023-05-01T22:56:21.094Z,52.58
2023-05-01T22:58:51.634Z,51.83
2023-05-01T23:01:23.032Z,51.61
2023-05-01T23:03:53.172Z,51.40
2023-05-01T23:06:23.146Z,51.78
2023-05-01T23:08:54.326Z,51.96
2023-05-01T23:11:26.113Z,52.33
2023-05-01T23:13:56.988Z,52.63
2023-05-01T23:16:27.264Z,52.51
2023-05-01T23:18:57.471Z,51.83
2023-05-01T23:21:28.252Z,51.75
2023-05-01T23:23:58.132Z,52.33
2023-05-01T23:26:32.976Z,52.35
2023-05-01T23:29:04.544Z,53.00
2023-05-01T23:31:34.760Z,53.40
2023-05-01T23:34:05.232Z,53.48
2023-05-01T23:36:35.600Z,52.68
2023-05-01T23:39:05.600Z,52.49
2023-05-01T23:41:35.448Z,52.41
2023-05-01T23:44:05.693Z,52.36
2023-05-01T23:46:35.764Z,52.74
2023-05-01T23:49:06.496Z,53.27
2023-05-01T23:51:36.679Z,53.56
2023-05-01T23:54:07.345Z,53.22
2023-05-01T23:56:39.199Z,52.87
2023-05-01T23:59:09.449Z,52.68
